Accueil
METAR-TAF:

METAR-TAF

Aéroports :

Plaisance, Italie

latitude: 44-55N, longitude: 009-44E, altitude: 134 m

Observation

Le bulletin a été fait il y a 1 heure et 9 minutes, à 13:55 UTC
Vent 3 kt de nord
Température 10°C
Humidité 100%
Pression 1016 hPa
Visibilité: 1700 m
Nuages fragmentés à une hauteur de 300 ft
Nuages épars à une hauteur de 500 ft
pluie, brume

METAR: LIMS 281355Z 36003KT 1700 RA BR BKN003 SCT005 10/10 Q1016 RMK OVC VIS MIN 1700 WIND THR30 34003KT YLO

Heure: 16:04 (15:04 UTC)

Prévision

Le bulletin a été fait il y a 1 heure et 4 minutes, à 14:00 UTC
Prévision valable du 28 à 15 UTC au 28 à 24 UTC
Vent 3 kt de direction variable
Visibilité: 2000 m
Nuages fragmentés à une hauteur de 500 ft
pluie, brume
Probabilité 40% :
Temporairement
du 28 à 15 UTC au 28 à 20 UTC
Visibilité: 1200 m
Ciel couvert à une hauteur de 200 ft

TAF: LIMS 281400Z 2815/2824 VRB03KT 2000 RA BR BKN005 PROB40 TEMPO 2815/2820 1200 OVC002

Observations et prévisions météorologiques de plus de 4000 aéroports (messages METAR et TAF).

Les stations disponibles sont représentées par des disques jaunes et rouges sur la carte.

Passer la souris dessus pour voir le nom de la station.

Cliquer dessus pour voir les observations et prévisions météorologiques.

Pour changer de carte: cliquez sur les boutons verts avec une croix noire pour zoomer, sur le bouton vert avec un tiret pour effectuer un zoom arrière, ou sur les flèches vertes pour les cartes adjacentes.


METAR-TAF: